Time;durP1;ratioP1;P1;durP2;ratioP2;P2;SDS_P1;SDS_P2;PMS_P1;PMS_P2;Temp;Humidity;BMP_temperature;BMP_pressure;BME280_temperature;BME280_humidity;BME280_pressure;Samples;Min_cycle;Max_cycle;Signal;HPM_P1;HPM_P2
2021/10/30 00:01:02;;;;;;;7.97;5.90;;;;;;;-138.14;100.00;63448.66;4974963;28;20217;-68
2021/10/30 00:03:28;;;;;;;6.53;5.70;;;;;;;-138.14;100.00;63448.66;4991142;28;20213;-68
2021/10/30 00:05:53;;;;;;;8.53;5.87;;;;;;;-138.14;100.00;63448.66;4991538;28;20222;-68
2021/10/30 00:08:19;;;;;;;6.90;5.63;;;;;;;-138.14;100.00;63448.66;4991173;28;20214;-68
2021/10/30 00:10:45;;;;;;;6.50;5.67;;;;;;;-138.14;100.00;63448.66;4990019;28;20221;-71
2021/10/30 00:13:13;;;;;;;6.33;5.30;;;;;;;-138.14;100.00;63448.66;4990875;28;20264;-68
2021/10/30 00:15:42;;;;;;;8.70;5.70;;;;;;;-138.14;100.00;63448.66;4991346;28;20702;-68
2021/10/30 00:18:09;;;;;;;6.63;5.50;;;;;;;-138.14;100.00;63448.66;4974906;28;20205;-67
2021/10/30 00:20:35;;;;;;;6.53;5.73;;;;;;;-138.14;100.00;63448.66;4974012;28;20768;-70
2021/10/30 00:23:02;;;;;;;8.80;5.90;;;;;;;-138.14;100.00;63448.66;4975008;28;20229;-68
2021/10/30 00:25:30;;;;;;;8.73;5.73;;;;;;;-138.14;100.00;63448.66;4991033;28;20233;-68
2021/10/30 00:27:55;;;;;;;7.43;6.13;;;;;;;-138.14;100.00;63448.66;4992183;28;20584;-68
2021/10/30 00:30:21;;;;;;;7.97;5.93;;;;;;;-138.14;100.00;63448.66;4990140;28;20177;-68
2021/10/30 00:32:46;;;;;;;9.07;6.60;;;;;;;-138.14;100.00;63448.66;4974712;28;20182;-68
2021/10/30 00:35:12;;;;;;;8.13;6.23;;;;;;;-138.14;100.00;63448.66;4989615;28;20190;-68
2021/10/30 00:37:37;;;;;;;6.23;5.30;;;;;;;-138.14;100.00;63448.66;4991012;28;20209;-68
2021/10/30 00:40:06;;;;;;;7.07;5.93;;;;;;;-138.14;100.00;63448.66;4973975;28;20224;-69
2021/10/30 00:42:32;;;;;;;6.10;5.20;;;;;;;-138.14;100.00;63448.66;4990416;28;20254;-68
2021/10/30 00:44:58;;;;;;;6.80;5.20;;;;;;;-138.14;100.00;63448.66;4980570;28;20228;-70
2021/10/30 00:47:24;;;;;;;5.20;4.70;;;;;;;-138.14;100.00;63448.66;4996286;28;20225;-69
2021/10/30 00:49:49;;;;;;;6.40;4.77;;;;;;;-138.14;100.00;63448.66;4997121;28;20182;-69
2021/10/30 00:52:15;;;;;;;5.37;4.67;;;;;;;-138.14;100.00;63448.66;4996420;28;20221;-69
2021/10/30 00:54:42;;;;;;;6.77;4.83;;;;;;;-138.14;100.00;63448.66;4996632;28;20181;-69
2021/10/30 00:57:07;;;;;;;6.87;4.77;;;;;;;-138.14;100.00;63448.66;4980583;28;20703;-68
2021/10/30 00:59:36;;;;;;;5.40;4.77;;;;;;;-138.14;100.00;63448.66;4997119;28;20303;-68
2021/10/30 01:02:01;;;;;;;5.43;4.33;;;;;;;-138.14;100.00;63448.66;4997672;28;20601;-68
2021/10/30 01:04:27;;;;;;;6.40;4.57;;;;;;;-138.14;100.00;63448.66;4969058;28;20189;-69
2021/10/30 01:06:53;;;;;;;6.83;4.17;;;;;;;-138.14;100.00;63448.66;4980234;28;20263;-69
2021/10/30 01:09:19;;;;;;;4.87;4.40;;;;;;;-138.14;100.00;63448.66;4964651;28;20193;-69
2021/10/30 01:11:47;;;;;;;6.57;5.20;;;;;;;-138.14;100.00;63448.66;4990876;28;20721;-68
2021/10/30 01:14:13;;;;;;;5.70;5.10;;;;;;;-138.14;100.00;63448.66;4996508;28;20186;-68
2021/10/30 01:16:38;;;;;;;5.57;4.87;;;;;;;-138.14;100.00;63448.66;4995996;28;20229;-68
2021/10/30 01:19:06;;;;;;;6.27;4.97;;;;;;;-138.14;100.00;63448.66;4981186;28;20181;-68
2021/10/30 01:21:38;;;;;;;5.73;4.50;;;;;;;-138.14;100.00;63448.66;4997385;28;20221;-68
2021/10/30 01:24:04;;;;;;;8.60;5.10;;;;;;;-138.14;100.00;63448.66;4996789;28;20947;-67
2021/10/30 01:26:30;;;;;;;6.13;4.67;;;;;;;-138.14;100.00;63448.66;4997328;28;20252;-68
2021/10/30 01:28:59;;;;;;;5.97;5.10;;;;;;;-138.14;100.00;63448.66;4981257;28;20177;-68
2021/10/30 01:31:25;;;;;;;5.27;4.50;;;;;;;-138.14;100.00;63448.66;4997040;28;20217;-68
2021/10/30 01:33:51;;;;;;;5.10;4.60;;;;;;;-138.14;100.00;63448.66;4996800;28;20319;-68
2021/10/30 01:36:19;;;;;;;5.37;4.67;;;;;;;-138.14;100.00;63448.66;4996231;28;21002;-68
2021/10/30 01:38:45;;;;;;;6.27;4.47;;;;;;;-138.14;100.00;63448.66;4998169;28;20192;-67
2021/10/30 01:41:10;;;;;;;5.93;4.83;;;;;;;-138.14;100.00;63448.66;4964094;28;20233;-71
2021/10/30 01:43:38;;;;;;;6.87;4.70;;;;;;;-138.14;100.00;63448.66;4997486;28;20201;-67
2021/10/30 01:46:04;;;;;;;6.00;5.37;;;;;;;-138.14;100.00;63448.66;4996298;28;20645;-68
2021/10/30 01:48:33;;;;;;;4.70;4.30;;;;;;;-138.14;100.00;63448.66;4998879;28;20201;-70
2021/10/30 01:50:58;;;;;;;5.23;4.60;;;;;;;-138.14;100.00;63448.66;4997585;28;20714;-67
2021/10/30 01:53:24;;;;;;;6.23;5.00;;;;;;;-138.14;100.00;63448.66;4998324;28;20301;-68
2021/10/30 01:55:52;;;;;;;5.63;4.73;;;;;;;-138.14;100.00;63448.66;4961068;28;20217;-70
2021/10/30 01:58:21;;;;;;;5.57;4.90;;;;;;;-138.14;100.00;63448.66;4993816;28;20292;-69
2021/10/30 02:00:49;;;;;;;5.97;4.93;;;;;;;-138.14;100.00;63448.66;4992887;28;20225;-68
2021/10/30 02:03:15;;;;;;;6.13;4.70;;;;;;;-138.14;100.00;63448.66;4993134;28;20233;-69
2021/10/30 02:05:40;;;;;;;5.13;4.63;;;;;;;-138.14;100.00;63448.66;4992439;28;20210;-69
2021/10/30 02:08:06;;;;;;;5.87;5.13;;;;;;;-138.14;100.00;63448.66;4977027;28;20232;-70
2021/10/30 02:10:32;;;;;;;4.87;4.47;;;;;;;-138.14;100.00;63448.66;4992639;28;20733;-69
2021/10/30 02:12:57;;;;;;;7.27;5.03;;;;;;;-138.14;100.00;63448.66;4994415;28;20178;-69
2021/10/30 02:15:25;;;;;;;6.23;5.20;;;;;;;-138.14;100.00;63448.66;4993804;28;20230;-68
2021/10/30 02:17:51;;;;;;;6.23;5.17;;;;;;;-138.14;100.00;63448.66;4973588;28;20588;-69
2021/10/30 02:20:22;;;;;;;5.77;5.17;;;;;;;-138.14;100.00;63448.66;4973589;28;20191;-69
2021/10/30 02:22:52;;;;;;;6.37;5.07;;;;;;;-138.14;100.00;63448.66;4992256;28;20209;-69
2021/10/30 02:25:18;;;;;;;7.03;5.30;;;;;;;-138.14;100.00;63448.66;4994378;28;20654;-69
2021/10/30 02:27:46;;;;;;;7.10;5.07;;;;;;;-138.14;100.00;63448.66;4994043;28;20229;-68
2021/10/30 02:30:11;;;;;;;6.47;5.73;;;;;;;-138.14;100.00;63448.66;4997529;28;20177;-69
2021/10/30 02:32:37;;;;;;;5.93;5.33;;;;;;;-138.14;100.00;63448.66;5012660;28;20263;-69
2021/10/30 02:35:05;;;;;;;7.50;5.40;;;;;;;-138.14;100.00;63448.66;5006796;28;20194;-71
2021/10/30 02:37:31;;;;;;;7.53;5.20;;;;;;;-138.14;100.00;63448.66;5006013;28;20255;-69
2021/10/30 02:39:56;;;;;;;6.10;5.50;;;;;;;-138.14;100.00;63448.66;4983820;28;20647;-70
2021/10/30 02:42:24;;;;;;;5.73;5.13;;;;;;;-138.14;100.00;63448.66;4998211;28;20221;-70
2021/10/30 02:44:50;;;;;;;6.13;5.53;;;;;;;-138.14;100.00;63448.66;4979937;28;20185;-69
2021/10/30 02:47:15;;;;;;;7.07;5.87;;;;;;;-138.14;100.00;63448.66;4992304;28;20218;-69
2021/10/30 02:49:41;;;;;;;6.80;6.10;;;;;;;-138.14;100.00;63448.66;4976631;28;20200;-69
2021/10/30 02:52:07;;;;;;;6.17;5.33;;;;;;;-138.14;100.00;63448.66;4992081;28;20225;-69
2021/10/30 02:54:35;;;;;;;7.40;6.60;;;;;;;-138.14;100.00;63448.66;4993354;28;20275;-68
2021/10/30 02:57:00;;;;;;;7.83;6.10;;;;;;;-138.14;100.00;63448.66;4993241;28;20226;-68
2021/10/30 02:59:26;;;;;;;9.20;6.03;;;;;;;-138.14;100.00;63448.66;4992043;28;20613;-69
2021/10/30 03:01:54;;;;;;;6.90;6.17;;;;;;;-138.14;100.00;63448.66;4992595;28;20221;-69
2021/10/30 03:04:19;;;;;;;8.83;5.93;;;;;;;-138.14;100.00;63448.66;4992211;28;20682;-70
2021/10/30 03:06:47;;;;;;;7.70;6.13;;;;;;;-138.14;100.00;63448.66;4963064;28;20221;-70
2021/10/30 03:09:16;;;;;;;7.13;6.17;;;;;;;-138.14;100.00;63448.66;4993316;28;20662;-69
2021/10/30 03:11:43;;;;;;;6.80;6.10;;;;;;;-138.14;100.00;63448.66;4991277;28;20288;-69
2021/10/30 03:14:09;;;;;;;7.47;6.30;;;;;;;-138.14;100.00;63448.66;4993078;28;20219;-69
2021/10/30 03:16:34;;;;;;;7.17;6.47;;;;;;;-138.14;100.00;63448.66;4974687;28;20217;-69
2021/10/30 03:19:00;;;;;;;8.37;6.33;;;;;;;-138.14;100.00;63448.66;4975899;28;20555;-70
2021/10/30 03:21:26;;;;;;;7.63;6.60;;;;;;;-138.14;100.00;63448.66;4959306;28;20229;-69
2021/10/30 03:23:54;;;;;;;7.57;6.33;;;;;;;-138.14;100.00;63448.66;4993175;28;20209;-69
2021/10/30 03:26:19;;;;;;;7.60;6.90;;;;;;;-138.14;100.00;63448.66;4974909;28;20221;-69
2021/10/30 03:28:45;;;;;;;9.87;7.87;;;;;;;-138.14;100.00;63448.66;4991396;28;20209;-68
2021/10/30 03:31:10;;;;;;;8.03;6.30;;;;;;;-138.14;100.00;63448.66;4991191;28;20225;-69
2021/10/30 03:33:36;;;;;;;8.50;7.60;;;;;;;-138.14;100.00;63448.66;4992837;28;20813;-69
2021/10/30 03:36:02;;;;;;;8.13;7.13;;;;;;;-138.14;100.00;63448.66;4992156;28;20233;-69
2021/10/30 03:38:28;;;;;;;7.93;7.10;;;;;;;-138.14;100.00;63448.66;4958938;28;20206;-69
2021/10/30 03:40:54;;;;;;;7.40;6.70;;;;;;;-138.14;100.00;63448.66;4990842;28;20225;-68
2021/10/30 03:43:19;;;;;;;7.67;6.50;;;;;;;-138.14;100.00;63448.66;4992197;28;20206;-69
2021/10/30 03:45:47;;;;;;;10.63;6.80;;;;;;;-138.14;100.00;63448.66;4992010;28;20224;-68
2021/10/30 03:48:20;;;;;;;8.70;7.00;;;;;;;-138.14;100.00;63448.66;4992596;28;20208;-69
2021/10/30 03:50:46;;;;;;;8.57;6.87;;;;;;;-138.14;100.00;63448.66;4992148;28;20221;-69
2021/10/30 03:53:12;;;;;;;8.33;6.63;;;;;;;-138.14;100.00;63448.66;4992568;28;20673;-69
2021/10/30 03:55:41;;;;;;;8.00;7.00;;;;;;;-138.14;100.00;63448.66;4991390;28;20224;-69
2021/10/30 03:58:07;;;;;;;7.13;6.43;;;;;;;-138.14;100.00;63448.66;4991129;28;20255;-68
2021/10/30 04:00:33;;;;;;;8.90;7.13;;;;;;;-138.14;100.00;63448.66;4990904;28;20217;-68
2021/10/30 04:02:59;;;;;;;10.03;7.60;;;;;;;-138.14;100.00;63448.66;4991216;28;20201;-69
2021/10/30 04:05:25;;;;;;;8.10;7.30;;;;;;;-138.14;100.00;63448.66;4991745;28;20210;-68
2021/10/30 04:07:50;;;;;;;7.63;6.83;;;;;;;-138.14;100.00;63448.66;4974971;28;20263;-69
2021/10/30 04:10:16;;;;;;;8.20;6.87;;;;;;;-138.14;100.00;63448.66;4973940;28;20240;-69
2021/10/30 04:12:42;;;;;;;7.73;6.97;;;;;;;-138.14;100.00;63448.66;4974672;28;20228;-68
2021/10/30 04:15:10;;;;;;;11.23;7.03;;;;;;;-138.14;100.00;63448.66;4990354;28;20189;-68
2021/10/30 04:17:37;;;;;;;10.07;7.27;;;;;;;-138.14;100.00;63448.66;4990476;28;20209;-68
2021/10/30 04:20:03;;;;;;;8.73;6.67;;;;;;;-138.14;100.00;63448.66;4991025;28;20276;-68
2021/10/30 04:22:29;;;;;;;8.00;7.13;;;;;;;-138.14;100.00;63448.66;4990123;28;20320;-68
2021/10/30 04:24:55;;;;;;;10.67;7.90;;;;;;;-138.14;100.00;63448.66;4972058;28;20175;-68
2021/10/30 04:27:23;;;;;;;8.70;7.80;;;;;;;-138.14;100.00;63448.66;4954885;28;20229;-68
2021/10/30 04:29:48;;;;;;;9.80;7.87;;;;;;;-138.14;100.00;63448.66;4989161;28;20663;-69
2021/10/30 04:32:17;;;;;;;9.17;8.07;;;;;;;-138.14;100.00;63448.66;4990247;28;20300;-68
2021/10/30 04:34:52;;;;;;;8.60;7.53;;;;;;;-138.14;100.00;63448.66;4991611;28;20196;-67
2021/10/30 04:37:17;;;;;;;9.47;7.70;;;;;;;-138.14;100.00;63448.66;4990290;28;20220;-69
2021/10/30 04:39:49;;;;;;;8.90;8.00;;;;;;;-138.14;100.00;63448.66;4991882;28;20570;-69
2021/10/30 04:42:15;;;;;;;8.47;7.67;;;;;;;-138.14;100.00;63448.66;4974018;28;20213;-70
2021/10/30 04:44:41;;;;;;;8.50;7.60;;;;;;;-138.14;100.00;63448.66;4973614;28;20212;-68
2021/10/30 04:47:12;;;;;;;9.70;7.87;;;;;;;-138.14;100.00;63448.66;4990311;28;20229;-70
2021/10/30 04:49:40;;;;;;;8.93;7.60;;;;;;;-138.14;100.00;63448.66;4991338;28;20667;-69
2021/10/30 04:52:08;;;;;;;9.83;8.10;;;;;;;-138.14;100.00;63448.66;4991164;28;20718;-69
2021/10/30 04:54:35;;;;;;;8.43;7.63;;;;;;;-138.14;100.00;63448.66;4990021;28;20464;-68
2021/10/30 04:57:00;;;;;;;8.27;7.37;;;;;;;-138.14;100.00;63448.66;4931862;28;20218;-68
2021/10/30 04:59:26;;;;;;;8.90;8.00;;;;;;;-138.14;100.00;63448.66;4965834;28;20256;-69
2021/10/30 05:01:51;;;;;;;8.50;7.60;;;;;;;-138.14;100.00;63448.66;4973974;28;20225;-69
2021/10/30 05:04:17;;;;;;;9.33;7.83;;;;;;;-138.14;100.00;63448.66;4991270;28;20206;-68
2021/10/30 05:06:42;;;;;;;9.20;7.40;;;;;;;-138.14;100.00;63448.66;4989944;28;20711;-69
2021/10/30 05:09:10;;;;;;;8.40;7.30;;;;;;;-138.14;100.00;63448.66;4973785;28;20236;-69
2021/10/30 05:11:36;;;;;;;8.53;7.63;;;;;;;-138.14;100.00;63448.66;4990702;28;20296;-69
2021/10/30 05:14:01;;;;;;;7.80;7.00;;;;;;;-138.14;100.00;63448.66;4990256;28;20212;-68
2021/10/30 05:16:27;;;;;;;8.70;7.53;;;;;;;-138.14;100.00;63448.66;4973429;28;20226;-68
2021/10/30 05:18:54;;;;;;;7.73;6.93;;;;;;;-138.14;100.00;63448.66;4991661;28;20181;-69
2021/10/30 05:21:20;;;;;;;8.17;7.30;;;;;;;-138.14;100.00;63448.66;4973564;28;20688;-69
2021/10/30 05:23:46;;;;;;;8.30;7.07;;;;;;;-138.14;100.00;63448.66;4991523;28;20213;-69
2021/10/30 05:26:11;;;;;;;9.47;7.33;;;;;;;-138.14;100.00;63448.66;4989376;28;20230;-69
2021/10/30 05:28:37;;;;;;;9.30;7.60;;;;;;;-138.14;100.00;63448.66;4989774;28;20221;-69
2021/10/30 05:31:02;;;;;;;9.27;8.03;;;;;;;-138.14;100.00;63448.66;4991809;28;20248;-69
2021/10/30 05:33:28;;;;;;;9.70;7.87;;;;;;;-138.14;100.00;63448.66;4995081;28;20184;-69
2021/10/30 05:36:14;;;;;;;8.67;7.33;;;;;;;-138.14;100.00;63448.66;4977104;28;20257;-68
2021/10/30 05:38:51;;;;;;;10.53;8.40;;;;;;;-138.14;100.00;63448.66;4993523;28;20280;-69
2021/10/30 05:41:17;;;;;;;9.13;7.60;;;;;;;-138.14;100.00;63448.66;4976432;28;20284;-68
2021/10/30 05:43:45;;;;;;;8.80;7.50;;;;;;;-138.14;100.00;63448.66;4993709;28;20206;-68
2021/10/30 05:46:14;;;;;;;9.43;7.37;;;;;;;-138.14;100.00;63448.66;4992526;28;20253;-69
2021/10/30 05:48:39;;;;;;;9.00;8.10;;;;;;;-138.14;100.00;63448.66;4993462;28;20683;-68
2021/10/30 05:51:05;;;;;;;8.43;7.13;;;;;;;-138.14;100.00;63448.66;4993042;28;20221;-68
2021/10/30 05:53:31;;;;;;;8.83;7.93;;;;;;;-138.14;100.00;63448.66;4977290;28;20193;-68
2021/10/30 05:55:57;;;;;;;8.87;7.53;;;;;;;-138.14;100.00;63448.66;4992870;28;20217;-69
2021/10/30 05:58:22;;;;;;;8.67;7.77;;;;;;;-138.14;100.00;63448.66;4990697;28;20633;-69
2021/10/30 06:00:48;;;;;;;8.23;7.40;;;;;;;-138.14;100.00;63448.66;4976034;28;20221;-68
2021/10/30 06:03:14;;;;;;;10.40;8.13;;;;;;;-138.14;100.00;63448.66;5004330;28;20596;-69
2021/10/30 06:05:40;;;;;;;9.07;8.03;;;;;;;-138.14;100.00;63448.66;5004707;28;20232;-69
2021/10/30 06:08:05;;;;;;;9.63;8.37;;;;;;;-138.14;100.00;63448.66;4994471;28;20233;-68
2021/10/30 06:10:31;;;;;;;9.03;8.13;;;;;;;-138.14;100.00;63448.66;4994112;28;20225;-68
2021/10/30 06:12:57;;;;;;;9.73;8.73;;;;;;;-138.14;100.00;63448.66;4977267;28;20783;-68
2021/10/30 06:15:23;;;;;;;9.47;8.47;;;;;;;-138.14;100.00;63448.66;4976230;28;20233;-69
2021/10/30 06:17:49;;;;;;;9.90;8.30;;;;;;;-138.14;100.00;63448.66;4972668;28;20202;-69
2021/10/30 06:20:15;;;;;;;9.33;8.33;;;;;;;-138.14;100.00;63448.66;5004515;28;20690;-70
2021/10/30 06:22:43;;;;;;;8.90;7.97;;;;;;;-138.14;100.00;63448.66;4981169;28;20228;-69
2021/10/30 06:25:12;;;;;;;9.30;8.30;;;;;;;-138.14;100.00;63448.66;5001401;28;20621;-69
2021/10/30 06:27:38;;;;;;;9.83;8.70;;;;;;;-138.14;100.00;63448.66;5012884;28;20250;-69
2021/10/30 06:30:06;;;;;;;8.83;7.60;;;;;;;-138.14;100.00;63448.66;5009566;28;20196;-69
2021/10/30 06:32:31;;;;;;;9.77;8.13;;;;;;;-138.14;100.00;63448.66;4993863;28;20224;-69
2021/10/30 06:34:59;;;;;;;8.47;7.50;;;;;;;-138.14;100.00;63448.66;4992721;28;20190;-69
2021/10/30 06:37:24;;;;;;;8.87;7.97;;;;;;;-138.14;100.00;63448.66;4992488;28;20226;-69
2021/10/30 06:39:50;;;;;;;8.73;7.83;;;;;;;-138.14;100.00;63448.66;4992632;28;20186;-68
2021/10/30 06:42:16;;;;;;;7.93;7.20;;;;;;;-138.14;100.00;63448.66;4993069;28;20221;-68
2021/10/30 06:44:44;;;;;;;8.33;7.53;;;;;;;-138.14;100.00;63448.66;4982150;28;20181;-69
2021/10/30 06:47:13;;;;;;;8.87;7.77;;;;;;;-138.14;100.00;63448.66;4992870;28;20315;-69
2021/10/30 06:49:39;;;;;;;8.93;7.40;;;;;;;-138.14;100.00;63448.66;4995660;28;20185;-69
2021/10/30 06:52:06;;;;;;;8.37;7.53;;;;;;;-138.14;100.00;63448.66;4992051;28;20304;-69
2021/10/30 06:54:34;;;;;;;9.43;7.37;;;;;;;-138.14;100.00;63448.66;4995790;28;20197;-70
2021/10/30 06:57:00;;;;;;;8.53;7.63;;;;;;;-138.14;100.00;63448.66;4986787;28;20288;-70
2021/10/30 06:59:25;;;;;;;8.63;7.73;;;;;;;-138.14;100.00;63448.66;4991373;28;20185;-70
2021/10/30 07:01:51;;;;;;;8.60;7.73;;;;;;;-138.14;100.00;63448.66;4982618;28;20224;-67
2021/10/30 07:04:17;;;;;;;9.87;7.60;;;;;;;-138.14;100.00;63448.66;4976762;28;20292;-68
2021/10/30 07:06:43;;;;;;;8.30;7.30;;;;;;;-138.14;100.00;63448.66;4975639;28;20214;-70
2021/10/30 07:09:11;;;;;;;9.53;8.00;;;;;;;-138.14;100.00;63448.66;5005544;28;20185;-69
2021/10/30 07:11:36;;;;;;;8.03;7.23;;;;;;;-138.14;100.00;63448.66;4992021;28;20293;-70
2021/10/30 07:14:02;;;;;;;7.97;6.80;;;;;;;-138.14;100.00;63448.66;4976226;28;20193;-69
2021/10/30 07:16:28;;;;;;;8.10;7.00;;;;;;;-138.14;100.00;63448.66;4983072;28;20209;-70
2021/10/30 07:18:53;;;;;;;7.80;6.87;;;;;;;-138.14;100.00;63448.66;4980126;28;20297;-69
2021/10/30 07:21:21;;;;;;;8.27;7.40;;;;;;;-138.14;100.00;63448.66;4974644;28;20316;-70
2021/10/30 07:23:49;;;;;;;8.67;7.10;;;;;;;-138.14;100.00;63448.66;4957238;28;20214;-70
2021/10/30 07:26:16;;;;;;;9.70;6.90;;;;;;;-138.14;100.00;63448.66;4976628;28;20214;-69
2021/10/30 07:28:47;;;;;;;8.87;7.07;;;;;;;-138.14;100.00;63448.66;4986937;28;20213;-69
2021/10/30 07:31:12;;;;;;;7.50;6.70;;;;;;;-138.14;100.00;63448.66;4974555;28;20604;-69
2021/10/30 07:33:38;;;;;;;8.10;7.17;;;;;;;-138.14;100.00;63448.66;4975881;28;20181;-70
2021/10/30 07:36:03;;;;;;;7.90;6.47;;;;;;;-138.14;100.00;63448.66;4958673;28;20220;-68
2021/10/30 07:38:29;;;;;;;7.20;6.50;;;;;;;-138.14;100.00;63448.66;4973430;28;20770;-69
2021/10/30 07:41:00;;;;;;;8.77;7.00;;;;;;;-138.14;100.00;63448.66;5000585;28;20221;-70
2021/10/30 07:43:35;;;;;;;7.93;7.22;;;;;;;-138.14;100.00;63448.66;4993246;28;20535;-69
2021/10/30 07:46:01;;;;;;;9.57;6.57;;;;;;;-138.14;100.00;63448.66;4994640;28;20217;-68
2021/10/30 08:11:50;;;;;;;6.03;4.80;;;;;;;;;;5068134;27;20820;-71
2021/10/30 08:14:15;;;;;;;5.13;4.23;;;;;;;;;;5039017;28;20226;-71
2021/10/30 08:16:43;;;;;;;5.03;4.27;;;;;;;;;;4991742;23;20218;-69
2021/10/30 08:27:15;;;;;;;21.60;4.37;;;;;;;;;;5091672;27;20581;-71
2021/10/30 08:29:41;;;;;;;6.43;3.90;;;;;;;;;;5052202;28;20186;-73
2021/10/30 08:32:08;;;;;;;4.95;3.80;;;;;;;;;;5024906;28;20232;-72
2021/10/30 08:34:34;;;;;;;4.20;3.40;;;;;;;;;;5048210;28;20191;-72
2021/10/30 08:36:59;;;;;;;5.60;3.65;;;;;;;;;;5022364;28;20237;-73
2021/10/30 08:39:29;;;;;;;3.97;3.58;;;;;;;;;;5054867;28;20184;-74
2021/10/30 08:41:57;;;;;;;4.43;3.20;;;;;;;;;;5034660;28;20207;-74
2021/10/30 08:44:25;;;;;;;4.60;3.63;;;;;;;;;;5032636;28;20562;-74
2021/10/30 08:46:51;;;;;;;3.70;3.30;;;;;;;;;;5029159;28;20215;-72
2021/10/30 08:49:21;;;;;;;5.70;4.07;;;;;;;;;;5047302;28;20607;-73
2021/10/30 08:51:52;;;;;;;7.00;3.33;;;;;;;;;;5030597;28;20298;-72
2021/10/30 08:54:19;;;;;;;6.37;3.80;;;;;;;;;;5048863;28;20215;-73
2021/10/30 08:56:45;;;;;;;4.57;3.63;;;;;;;;;;5030495;28;20281;-72
2021/10/30 08:59:13;;;;;;;4.03;3.63;;;;;;;;;;5031456;28;20191;-73
2021/10/30 09:01:52;;;;;;;4.17;3.50;;;;;;;;;;5046853;28;20310;-74
2021/10/30 09:04:18;;;;;;;5.60;3.80;;;;;;;;;;5014990;28;20219;-72
2021/10/30 09:07:02;;;;;;;4.43;3.70;;;;;;;;;;5013899;28;20239;-73
2021/10/30 09:09:28;;;;;;;5.70;3.73;;;;;;;;;;5009287;28;20215;-73
2021/10/30 09:11:58;;;;;;;4.27;3.60;;;;;;;;;;5046666;28;20764;-73
2021/10/30 09:14:32;;;;;;;5.43;3.90;;;;;;;;;;5047503;28;20180;-74
2021/10/30 09:17:19;;;;;;;4.10;3.70;;;;;;;;;;5031143;28;20322;-73
2021/10/30 09:19:49;;;;;;;3.90;3.50;;;;;;;;;;5027789;28;20180;-73
2021/10/30 09:22:16;;;;;;;4.00;3.20;;;;;;;;;;5043953;28;20244;-74
2021/10/30 09:25:01;;;;;;;3.90;3.40;;;;;;;;;;5010959;28;20650;-73
2021/10/30 09:27:53;;;;;;;3.83;3.20;;;;;;;;;;5043573;28;20232;-72
2021/10/30 09:30:26;;;;;;;4.35;3.80;;;;;;;;;;5011334;28;20177;-73
2021/10/30 09:32:57;;;;;;;4.13;3.30;;;;;;;;;;5014330;28;20185;-73
2021/10/30 09:35:40;;;;;;;4.40;3.40;;;;;;;;;;5047186;28;20680;-73
2021/10/30 09:38:08;;;;;;;5.07;3.23;;;;;;;;;;5021641;28;20219;-73
2021/10/30 09:40:36;;;;;;;4.20;3.30;;;;;;;;;;5001370;28;20634;-73
2021/10/30 09:43:07;;;;;;;4.57;3.50;;;;;;;;;;5017649;28;20180;-74
2021/10/30 09:45:35;;;;;;;3.73;3.43;;;;;;;;;;5001271;28;20599;-74
2021/10/30 09:48:05;;;;;;;3.43;3.00;;;;;;;;;;5017569;28;21237;-73
2021/10/30 09:50:35;;;;;;;4.27;3.27;;;;;;;;;;5033819;28;20767;-73
2021/10/30 09:53:21;;;;;;;5.18;3.25;;;;;;;;;;5016897;28;20189;-73
2021/10/30 09:56:06;;;;;;;3.03;2.80;;;;;;;;;;5019568;28;20220;-74
2021/10/30 09:58:50;;;;;;;4.23;3.20;;;;;;;;;;5001104;28;20900;-73
2021/10/30 10:01:21;;;;;;;3.87;2.80;;;;;;;;;;5033127;28;20708;-73
2021/10/30 10:03:50;;;;;;;3.40;3.10;;;;;;;;;;5001990;28;20173;-74
2021/10/30 10:06:25;;;;;;;4.47;3.60;;;;;;;;;;4999366;28;20244;-74
2021/10/30 10:08:51;;;;;;;4.87;3.20;;;;;;;;;;5017114;28;20201;-73
2021/10/30 10:11:18;;;;;;;6.17;3.17;;;;;;;;;;5032654;28;20227;-73
2021/10/30 10:13:51;;;;;;;3.35;2.67;;;;;;;;;;5017075;28;20190;-73
2021/10/30 10:16:19;;;;;;;3.60;3.00;;;;;;;;;;5016633;28;20252;-73
2021/10/30 10:18:48;;;;;;;5.40;3.50;;;;;;;;;;5016971;28;20204;-74
2021/10/30 10:21:17;;;;;;;4.05;3.65;;;;;;;;;;5016697;28;20235;-73
2021/10/30 10:23:45;;;;;;;4.03;3.15;;;;;;;;;;5000743;28;20176;-74
2021/10/30 10:26:11;;;;;;;3.60;3.30;;;;;;;;;;5015690;28;20266;-73
2021/10/30 10:28:37;;;;;;;4.22;3.80;;;;;;;;;;5016672;28;20362;-74
2021/10/30 10:31:24;;;;;;;4.38;3.42;;;;;;;;;;5032558;28;20223;-73
2021/10/30 10:34:10;;;;;;;3.65;3.33;;;;;;;;;;5033123;28;20743;-72
2021/10/30 10:36:37;;;;;;;3.63;2.97;;;;;;;;;;4999125;28;20701;-72
2021/10/30 10:39:03;;;;;;;4.50;3.70;;;;;;;;;;5016413;28;20188;-72
2021/10/30 10:41:37;;;;;;;4.22;3.25;;;;;;;;;;5015936;28;20223;-73
2021/10/30 10:44:04;;;;;;;5.03;3.47;;;;;;;;;;5032583;28;20190;-72
2021/10/30 10:46:30;;;;;;;3.95;3.20;;;;;;;;;;5014791;28;20216;-73
2021/10/30 10:49:13;;;;;;;5.47;3.22;;;;;;;;;;5015315;28;20199;-74
2021/10/30 10:52:04;;;;;;;3.95;3.30;;;;;;;;;;5015564;28;20232;-73
2021/10/30 10:54:55;;;;;;;4.53;3.67;;;;;;;;;;4988378;28;20189;-74
2021/10/30 10:57:28;;;;;;;3.95;3.60;;;;;;;;;;5013431;28;20316;-72
2021/10/30 11:00:13;;;;;;;6.40;4.15;;;;;;;;;;5032783;28;20269;-72
2021/10/30 11:03:00;;;;;;;4.40;4.00;;;;;;;;;;5052838;28;20211;-72
2021/10/30 11:05:29;;;;;;;3.92;3.53;;;;;;;;;;5043191;28;20216;-72
2021/10/30 11:07:54;;;;;;;4.00;3.38;;;;;;;;;;5036107;28;20262;-72
2021/10/30 11:10:25;;;;;;;3.65;3.00;;;;;;;;;;5039088;28;20192;-73
2021/10/30 11:13:00;;;;;;;4.30;3.17;;;;;;;;;;5032603;28;20598;-72
2021/10/30 11:15:37;;;;;;;3.55;2.90;;;;;;;;;;5030979;28;20306;-72
2021/10/30 11:18:11;;;;;;;3.95;2.97;;;;;;;;;;5032361;28;20192;-72
2021/10/30 11:20:45;;;;;;;3.45;3.13;;;;;;;;;;5001854;28;20231;-72
2021/10/30 11:23:16;;;;;;;5.30;3.38;;;;;;;;;;5037990;28;20239;-73
2021/10/30 11:25:46;;;;;;;7.85;3.20;;;;;;;;;;5035397;28;20224;-73
2021/10/30 11:28:11;;;;;;;3.50;3.20;;;;;;;;;;5019363;28;20647;-73
2021/10/30 11:30:43;;;;;;;4.95;3.17;;;;;;;;;;5016337;28;20294;-73
2021/10/30 11:33:25;;;;;;;6.28;3.13;;;;;;;;;;5016291;28;20239;-73
2021/10/30 11:36:14;;;;;;;3.83;3.22;;;;;;;;;;5031687;28;20227;-73
2021/10/30 11:38:46;;;;;;;3.85;3.45;;;;;;;;;;4995120;28;20201;-73
2021/10/30 11:41:18;;;;;;;3.97;3.03;;;;;;;;;;5024994;28;20623;-73
2021/10/30 11:43:50;;;;;;;3.25;2.95;;;;;;;;;;4999544;28;20198;-73
2021/10/30 11:46:19;;;;;;;5.05;3.20;;;;;;;;;;5014530;28;20246;-73
2021/10/30 11:48:48;;;;;;;3.92;3.38;;;;;;;;;;5014640;28;20197;-73
2021/10/30 11:51:44;;;;;;;5.63;3.10;;;;;;;;;;5030839;28;20220;-73
2021/10/30 11:54:13;;;;;;;4.70;3.30;;;;;;;;;;5032668;28;20183;-73
2021/10/30 11:56:40;;;;;;;4.00;2.72;;;;;;;;;;4998518;28;20258;-73
2021/10/30 11:59:06;;;;;;;4.85;3.22;;;;;;;;;;5014551;28;20211;-73
2021/10/30 12:01:44;;;;;;;4.93;3.30;;;;;;;;;;5030150;28;20228;-73
2021/10/30 12:04:22;;;;;;;4.47;3.72;;;;;;;;;;5031036;28;20651;-74
2021/10/30 12:06:58;;;;;;;3.70;3.28;;;;;;;;;;5022249;28;20212;-73
2021/10/30 12:09:39;;;;;;;3.95;3.25;;;;;;;;;;4999229;28;20196;-73
2021/10/30 12:12:12;;;;;;;3.40;3.10;;;;;;;;;;5031197;28;20254;-72
2021/10/30 12:14:42;;;;;;;4.93;3.33;;;;;;;;;;4998473;28;20600;-72
2021/10/30 12:17:14;;;;;;;4.90;3.10;;;;;;;;;;4981086;28;20228;-72
2021/10/30 12:19:40;;;;;;;4.05;3.38;;;;;;;;;;5014533;28;20180;-73
2021/10/30 12:22:12;;;;;;;5.68;3.35;;;;;;;;;;4997624;28;20220;-73
2021/10/30 12:24:40;;;;;;;4.32;3.92;;;;;;;;;;5015851;28;20199;-72
2021/10/30 12:27:07;;;;;;;4.20;3.80;;;;;;;;;;5013850;28;20274;-72
2021/10/30 12:29:40;;;;;;;3.70;3.17;;;;;;;;;;5014198;28;20188;-73
2021/10/30 12:32:20;;;;;;;4.03;3.47;;;;;;;;;;4998463;28;20234;-74
2021/10/30 12:35:00;;;;;;;3.67;3.38;;;;;;;;;;4998444;28;20200;-73
2021/10/30 12:37:32;;;;;;;4.72;3.65;;;;;;;;;;5018816;28;20269;-71
2021/10/30 12:40:10;;;;;;;4.10;3.60;;;;;;;;;;5014394;28;20192;-72
2021/10/30 12:42:35;;;;;;;4.70;3.47;;;;;;;;;;5050107;28;20207;-73
2021/10/30 12:45:03;;;;;;;4.95;4.03;;;;;;;;;;5049941;28;20186;-72
2021/10/30 12:47:31;;;;;;;5.35;3.92;;;;;;;;;;5050408;28;20212;-72
2021/10/30 12:50:04;;;;;;;4.90;4.13;;;;;;;;;;5050783;28;20644;-72
2021/10/30 12:52:43;;;;;;;7.25;4.80;;;;;;;;;;5033630;28;20207;-73